createdAt,value
2022-10-20T00:01:07.246Z,102135.03
2022-10-20T00:03:34.424Z,102142.84
2022-10-20T00:06:10.405Z,102142.84
2022-10-20T00:08:38.186Z,102130.56
2022-10-20T00:11:05.915Z,102128.75
2022-10-20T00:13:33.302Z,102127.00
2022-10-20T00:16:01.156Z,102127.88
2022-10-20T00:18:28.803Z,102119.22
2022-10-20T00:20:56.267Z,102126.16
2022-10-20T00:23:23.813Z,102108.75
2022-10-20T00:26:01.812Z,102104.28
2022-10-20T00:28:29.061Z,102107.69
2022-10-20T00:30:56.762Z,102102.44
2022-10-20T00:33:24.544Z,102107.69
2022-10-20T00:35:51.689Z,102113.84
2022-10-20T00:40:51.260Z,102099.97
2022-10-20T00:43:18.742Z,102101.69
2022-10-20T00:45:51.752Z,102097.28
2022-10-20T00:48:25.761Z,102108.59
2022-10-20T00:50:55.035Z,102098.09
2022-10-20T00:53:23.201Z,102099.84
2022-10-20T00:55:51.788Z,102098.06
2022-10-20T00:58:19.585Z,102098.00
2022-10-20T01:00:48.765Z,102101.47
2022-10-20T01:03:19.879Z,102099.69
2022-10-20T01:05:47.039Z,102101.44
2022-10-20T01:08:14.190Z,102095.34
2022-10-20T01:10:51.834Z,102089.09
2022-10-20T01:13:33.286Z,102083.81
2022-10-20T01:16:07.576Z,102079.53
2022-10-20T01:18:47.442Z,102076.03
2022-10-20T01:21:58.572Z,102079.50
2022-10-20T01:24:34.538Z,102075.16
2022-10-20T01:27:23.455Z,102064.75
2022-10-20T01:30:16.118Z,102062.97
2022-10-20T01:33:22.329Z,102056.88
2022-10-20T01:36:05.975Z,102051.63
2022-10-20T01:38:55.146Z,102044.72
2022-10-20T01:41:34.069Z,102042.91
2022-10-20T01:44:02.890Z,102039.41
2022-10-20T01:46:30.329Z,102035.03
2022-10-20T01:48:58.816Z,102033.25
2022-10-20T01:51:25.985Z,102034.16
2022-10-20T01:53:53.140Z,102015.81
2022-10-20T01:56:37.062Z,102022.78
2022-10-20T01:59:20.116Z,102011.47
2022-10-20T02:02:22.605Z,102010.56
2022-10-20T02:05:11.363Z,102008.81
2022-10-20T02:07:39.240Z,102004.47
2022-10-20T02:10:27.984Z,102007.13
2022-10-20T02:12:58.936Z,102005.28
2022-10-20T02:15:27.798Z,102007.84
2022-10-20T02:18:02.464Z,102007.84
2022-10-20T02:20:30.597Z,102009.59
2022-10-20T02:22:59.040Z,101999.09
2022-10-20T02:25:27.455Z,101995.53
2022-10-20T02:27:55.264Z,101999.03
2022-10-20T02:30:22.506Z,101997.19
2022-10-20T02:32:52.732Z,101984.16
2022-10-20T02:35:22.563Z,101985.94
2022-10-20T02:37:50.386Z,101985.09
2022-10-20T02:40:17.640Z,101979.88
2022-10-20T02:42:44.811Z,101985.09
2022-10-20T02:45:15.571Z,101984.06
2022-10-20T02:47:42.858Z,101973.53
2022-10-20T02:50:10.255Z,101980.50
2022-10-20T02:52:38.038Z,101976.19
2022-10-20T02:55:06.006Z,101970.97
2022-10-20T02:57:33.839Z,101973.50
2022-10-20T03:00:01.289Z,101974.41
2022-10-20T03:02:28.443Z,101971.78
2022-10-20T03:04:55.599Z,101967.44
2022-10-20T03:07:22.858Z,101964.81
2022-10-20T03:09:50.114Z,101961.38
2022-10-20T03:12:17.472Z,101953.44
2022-10-20T03:14:45.386Z,101955.16
2022-10-20T03:17:12.632Z,101941.31
2022-10-20T03:19:41.290Z,101949.13
2022-10-20T03:22:08.533Z,101940.41
2022-10-20T03:24:35.694Z,101942.03
2022-10-20T03:27:02.875Z,101935.13
2022-10-20T03:29:30.020Z,101937.72
2022-10-20T03:31:57.203Z,101933.38
2022-10-20T03:34:24.443Z,101936.84
2022-10-20T03:36:51.698Z,101930.75
2022-10-20T03:39:18.910Z,101935.94
2022-10-20T03:41:46.114Z,101935.97
2022-10-20T03:44:13.305Z,101935.94
2022-10-20T03:46:40.472Z,101942.81
2022-10-20T03:49:07.674Z,101929.75
2022-10-20T03:51:34.904Z,101937.53
2022-10-20T03:54:02.044Z,101937.56
2022-10-20T03:56:29.278Z,101927.16
2022-10-20T03:58:56.463Z,101916.72
2022-10-20T04:01:29.926Z,101922.78
2022-10-20T04:03:57.212Z,101923.69
2022-10-20T04:06:24.511Z,101921.94
2022-10-20T04:08:51.729Z,101923.69
2022-10-20T04:11:18.994Z,101920.25
2022-10-20T04:13:46.381Z,101914.09
2022-10-20T04:16:13.687Z,101916.66
2022-10-20T04:18:40.850Z,101921.91
2022-10-20T04:21:08.021Z,101919.34
2022-10-20T04:23:35.179Z,101914.06
2022-10-20T04:26:09.159Z,101908.78
2022-10-20T04:28:36.350Z,101908.78
2022-10-20T04:31:03.528Z,101897.47
2022-10-20T04:33:30.753Z,101896.63
2022-10-20T04:36:03.423Z,101906.09
2022-10-20T04:38:31.248Z,101904.34
2022-10-20T04:41:03.367Z,101901.72
2022-10-20T04:43:32.389Z,101897.38
2022-10-20T04:46:07.222Z,101899.09
2022-10-20T04:48:36.912Z,101894.81
2022-10-20T04:51:06.197Z,101891.34
2022-10-20T04:53:33.448Z,101883.53
2022-10-20T04:56:00.661Z,101880.00
2022-10-20T04:58:27.971Z,101868.69
2022-10-20T05:00:59.835Z,101868.66
2022-10-20T05:03:27.009Z,101865.06
2022-10-20T05:05:54.176Z,101869.41
2022-10-20T05:08:21.368Z,101861.56
2022-10-20T05:10:48.593Z,101859.03
2022-10-20T05:13:15.735Z,101862.47
2022-10-20T05:15:42.924Z,101865.94
2022-10-20T05:18:10.150Z,101860.78
2022-10-20T05:20:41.224Z,101850.38
2022-10-20T05:23:13.159Z,101853.81
2022-10-20T05:25:40.395Z,101853.75
2022-10-20T05:28:07.641Z,101858.16
2022-10-20T05:30:35.626Z,101855.59
2022-10-20T05:33:02.896Z,101863.41
2022-10-20T05:35:30.548Z,101859.94
2022-10-20T05:37:57.836Z,101859.06
2022-10-20T05:40:25.035Z,101866.00
2022-10-20T05:42:52.248Z,101869.44
2022-10-20T05:45:19.479Z,101872.97
2022-10-20T05:47:46.630Z,101881.63
2022-10-20T05:50:13.796Z,101872.09
2022-10-20T05:52:40.992Z,101876.44
2022-10-20T05:55:09.339Z,101871.22
2022-10-20T05:57:36.516Z,101869.53
2022-10-20T06:00:04.546Z,101870.34
2022-10-20T06:02:31.733Z,101869.38
2022-10-20T06:04:59.035Z,101866.00
2022-10-20T06:07:26.328Z,101866.00
2022-10-20T06:09:54.719Z,101865.16
2022-10-20T06:12:21.872Z,101864.34
2022-10-20T06:14:49.048Z,101871.34
2022-10-20T06:17:16.224Z,101867.06
2022-10-20T06:19:43.441Z,101867.13
2022-10-20T06:22:10.583Z,101864.56
2022-10-20T06:24:37.736Z,101864.56
2022-10-20T06:27:04.893Z,101856.81
2022-10-20T06:29:32.068Z,101857.78
2022-10-20T06:31:59.262Z,101850.03
2022-10-20T06:34:26.963Z,101851.03
2022-10-20T06:36:54.121Z,101844.97
2022-10-20T06:39:23.282Z,101845.97
2022-10-20T06:41:52.776Z,101845.16
2022-10-20T06:44:21.726Z,101840.94
2022-10-20T06:46:49.301Z,101844.50
2022-10-20T06:49:16.466Z,101830.72
2022-10-20T06:51:43.737Z,101842.09
2022-10-20T06:54:10.931Z,101837.81
2022-10-20T06:56:39.941Z,101845.69
2022-10-20T06:59:07.419Z,101838.75
2022-10-20T07:01:36.967Z,101840.59
2022-10-20T07:04:07.464Z,101839.75
2022-10-20T07:06:42.448Z,101845.84
2022-10-20T07:09:13.859Z,101837.16
2022-10-20T07:11:41.720Z,101838.97
2022-10-20T07:14:09.814Z,101843.34
2022-10-20T07:16:36.968Z,101841.59
2022-10-20T07:19:05.314Z,101842.47
2022-10-20T07:21:36.033Z,101845.97
2022-10-20T07:24:06.298Z,101843.34
2022-10-20T07:26:35.726Z,101843.34
2022-10-20T07:29:03.799Z,101839.00
2022-10-20T07:31:36.404Z,101830.22
2022-10-20T07:34:23.982Z,101826.75
2022-10-20T07:36:52.207Z,101833.69
2022-10-20T07:39:19.490Z,101840.66
2022-10-20T07:41:48.039Z,101828.41
2022-10-20T07:44:16.411Z,101829.22
2022-10-20T07:46:43.740Z,101831.75
2022-10-20T07:51:58.190Z,101829.81
2022-10-20T07:54:25.387Z,101830.66
2022-10-20T07:56:52.575Z,101830.56
2022-10-20T07:59:19.808Z,101822.66
2022-10-20T08:01:47.518Z,101819.88
2022-10-20T08:04:14.836Z,101808.28
2022-10-20T08:06:42.030Z,101816.06
2022-10-20T08:09:09.281Z,101813.31
2022-10-20T08:11:36.774Z,101808.00
2022-10-20T08:14:04.160Z,101811.41
2022-10-20T08:16:31.413Z,101816.53
2022-10-20T08:21:39.648Z,101808.25
2022-10-20T08:24:06.893Z,101801.13
2022-10-20T08:26:34.031Z,101794.72
2022-10-20T08:29:02.620Z,101801.69
2022-10-20T08:31:29.822Z,101802.34
2022-10-20T08:33:57.281Z,101792.47
2022-10-20T08:36:24.693Z,101779.16
2022-10-20T08:38:52.259Z,101787.63
2022-10-20T08:41:27.091Z,101783.28
2022-10-20T08:44:01.403Z,101787.09
2022-10-20T08:46:39.965Z,101774.22
2022-10-20T08:49:15.722Z,101785.50
2022-10-20T08:51:43.069Z,101793.66
2022-10-20T08:54:14.294Z,101776.00
2022-10-20T08:56:41.680Z,101779.16
2022-10-20T08:59:28.544Z,101775.31
2022-10-20T09:01:57.015Z,101765.63
2022-10-20T09:04:35.724Z,101759.06
2022-10-20T09:07:08.936Z,101755.56
2022-10-20T09:09:36.527Z,101753.31
2022-10-20T09:12:06.392Z,101752.19
2022-10-20T09:14:38.045Z,101757.69
2022-10-20T09:17:09.181Z,101740.22
2022-10-20T09:19:38.536Z,101735.97
2022-10-20T09:22:06.889Z,101726.50
2022-10-20T09:24:36.148Z,101722.16
2022-10-20T09:27:21.840Z,101722.38
2022-10-20T09:29:49.028Z,101717.53
2022-10-20T09:32:46.032Z,101723.13
2022-10-20T09:35:20.606Z,101717.19
2022-10-20T09:38:00.169Z,101709.81
2022-10-20T09:40:27.800Z,101715.72
2022-10-20T09:43:17.740Z,101696.91
2022-10-20T09:45:59.604Z,101694.56
2022-10-20T09:48:34.438Z,101700.63
2022-10-20T09:51:01.888Z,101705.25
2022-10-20T09:53:39.945Z,101700.81
2022-10-20T09:56:07.463Z,101701.41
2022-10-20T09:58:37.890Z,101696.03
2022-10-20T10:01:07.438Z,101700.66
2022-10-20T10:03:45.879Z,101689.81
2022-10-20T10:06:28.156Z,101685.66
2022-10-20T10:08:56.931Z,101693.78
2022-10-20T10:11:34.343Z,101682.75
2022-10-20T10:14:01.915Z,101673.00
2022-10-20T10:16:29.294Z,101672.06
2022-10-20T10:19:02.587Z,101655.03
2022-10-20T10:21:41.939Z,101658.00
2022-10-20T10:24:11.518Z,101651.03
2022-10-20T10:26:52.063Z,101648.31
2022-10-20T10:29:25.400Z,101635.69
2022-10-20T10:32:15.009Z,101638.56
2022-10-20T10:34:56.807Z,101644.34
2022-10-20T10:37:23.968Z,101642.63
2022-10-20T10:39:51.177Z,101625.78
2022-10-20T10:42:39.436Z,101632.44
2022-10-20T10:45:23.116Z,101637.97
2022-10-20T10:48:27.935Z,101623.53
2022-10-20T10:50:59.200Z,101620.03
2022-10-20T10:54:01.566Z,101612.06
2022-10-20T10:56:49.017Z,101599.91
2022-10-20T10:59:24.790Z,101601.56
2022-10-20T11:02:26.539Z,101589.66
2022-10-20T11:05:17.367Z,101571.78
2022-10-20T11:08:01.174Z,101573.31
2022-10-20T11:10:28.290Z,101567.16
2022-10-20T11:13:24.481Z,101552.22
2022-10-20T11:16:23.489Z,101560.91
2022-10-20T11:19:00.962Z,101552.81
2022-10-20T11:21:32.076Z,101548.63
2022-10-20T11:24:30.196Z,101553.41
2022-10-20T11:27:25.771Z,101550.78
2022-10-20T11:30:05.444Z,101555.38
2022-10-20T11:32:50.278Z,101555.00
2022-10-20T11:35:54.147Z,101539.53
2022-10-20T11:38:34.838Z,101533.84
2022-10-20T11:41:19.070Z,101543.03
2022-10-20T11:43:57.371Z,101540.94
2022-10-20T11:46:51.798Z,101526.78
2022-10-20T11:49:19.557Z,101522.38
2022-10-20T11:51:55.297Z,101525.03
2022-10-20T11:54:31.532Z,101523.78
2022-10-20T11:57:14.440Z,101527.19
2022-10-20T12:00:22.796Z,101524.19
2022-10-20T12:02:52.691Z,101526.81
2022-10-20T12:06:07.586Z,101518.25
2022-10-20T12:09:00.162Z,101513.97
2022-10-20T12:11:50.402Z,101497.44
2022-10-20T12:14:19.484Z,101501.69
2022-10-20T12:16:55.589Z,101498.19
2022-10-20T12:19:25.674Z,101482.75
2022-10-20T12:22:02.351Z,101483.66
2022-10-20T12:24:41.392Z,101482.13
2022-10-20T12:27:17.798Z,101480.09
2022-10-20T12:29:44.861Z,101487.06
2022-10-20T12:32:38.261Z,101480.28
2022-10-20T12:35:24.036Z,101493.13
2022-10-20T12:38:03.966Z,101484.38
2022-10-20T12:40:43.439Z,101459.81
2022-10-20T12:43:29.917Z,101464.34
2022-10-20T12:45:59.575Z,101469.88
2022-10-20T12:48:27.021Z,101457.75
2022-10-20T12:50:54.609Z,101450.78
2022-10-20T12:53:28.470Z,101444.53
2022-10-20T12:56:00.518Z,101443.69
2022-10-20T12:58:30.880Z,101445.50
2022-10-20T13:00:58.622Z,101445.50
2022-10-20T13:03:47.253Z,101431.22
2022-10-20T13:06:26.905Z,101425.44
2022-10-20T13:09:07.024Z,101426.34
2022-10-20T13:11:41.522Z,101416.78
2022-10-20T13:14:36.134Z,101410.69
2022-10-20T13:17:23.298Z,101408.91
2022-10-20T13:20:01.769Z,101404.41
2022-10-20T13:22:43.043Z,101411.38
2022-10-20T13:25:40.454Z,101402.59
2022-10-20T13:28:18.536Z,101392.50
2022-10-20T13:31:13.243Z,101395.97
2022-10-20T13:34:03.821Z,101387.09
2022-10-20T13:36:40.912Z,101373.00
2022-10-20T13:39:19.715Z,101375.44
2022-10-20T13:41:57.424Z,101384.56
2022-10-20T13:44:42.101Z,101382.81
2022-10-20T13:47:40.767Z,101382.00
2022-10-20T13:50:21.560Z,101376.84
2022-10-20T13:52:51.548Z,101380.50
2022-10-20T13:55:27.756Z,101385.03
2022-10-20T13:58:04.350Z,101372.59
2022-10-20T14:00:33.129Z,101383.94
2022-10-20T14:03:17.982Z,101384.97
2022-10-20T14:05:45.202Z,101373.53
2022-10-20T14:08:15.919Z,101378.00
2022-10-20T14:10:56.066Z,101379.75
2022-10-20T14:13:31.430Z,101377.09
2022-10-20T14:16:00.575Z,101375.47
2022-10-20T14:18:35.485Z,101378.19
2022-10-20T14:21:05.112Z,101370.03
2022-10-20T14:23:35.723Z,101361.22
2022-10-20T14:26:04.814Z,101362.94
2022-10-20T14:28:33.974Z,101358.34
2022-10-20T14:31:01.506Z,101355.84
2022-10-20T14:33:29.898Z,101349.72
2022-10-20T14:36:02.625Z,101349.84
2022-10-20T14:38:37.653Z,101345.38
2022-10-20T14:41:07.100Z,101351.63
2022-10-20T14:43:42.097Z,101342.94
2022-10-20T14:46:12.340Z,101329.75
2022-10-20T14:48:43.962Z,101334.25
2022-10-20T14:51:32.573Z,101333.34
2022-10-20T14:54:20.902Z,101333.38
2022-10-20T14:56:49.827Z,101336.31
2022-10-20T14:59:19.476Z,101325.81
2022-10-20T15:02:21.203Z,101324.28
2022-10-20T15:04:51.837Z,101319.31
2022-10-20T15:07:24.413Z,101320.22
2022-10-20T15:09:53.710Z,101308.72
2022-10-20T15:12:22.108Z,101313.38
2022-10-20T15:14:54.508Z,101315.41
2022-10-20T15:17:38.811Z,101310.34
2022-10-20T15:20:32.793Z,101318.44
2022-10-20T15:23:05.869Z,101309.00
2022-10-20T15:25:43.596Z,101316.00
2022-10-20T15:28:25.331Z,101302.97
2022-10-20T15:30:54.774Z,101303.22
2022-10-20T15:33:22.576Z,101305.31
2022-10-20T15:35:50.672Z,101303.63
2022-10-20T15:38:17.918Z,101287.00
2022-10-20T15:40:45.184Z,101285.44
2022-10-20T15:43:14.613Z,101272.44
2022-10-20T15:45:45.161Z,101260.44
2022-10-20T15:48:12.427Z,101252.78
2022-10-20T15:50:39.969Z,101259.91
2022-10-20T15:53:07.394Z,101257.44
2022-10-20T15:55:37.458Z,101254.16
2022-10-20T15:58:04.799Z,101259.44
2022-10-20T16:00:32.239Z,101252.75
2022-10-20T16:02:59.440Z,101254.81
2022-10-20T16:05:27.372Z,101241.72
2022-10-20T16:07:55.242Z,101249.66
2022-10-20T16:10:25.229Z,101252.56
2022-10-20T16:12:52.395Z,101250.06
2022-10-20T16:15:19.716Z,101243.03
2022-10-20T16:17:50.582Z,101246.06
2022-10-20T16:20:18.123Z,101248.69
2022-10-20T16:22:45.280Z,101250.66
2022-10-20T16:25:12.475Z,101257.91
2022-10-20T16:27:40.058Z,101258.94
2022-10-20T16:30:08.504Z,101260.84
2022-10-20T16:32:36.339Z,101262.75
2022-10-20T16:35:05.480Z,101267.34
2022-10-20T16:37:33.810Z,101273.56
2022-10-20T16:40:07.394Z,101263.06
2022-10-20T16:42:34.577Z,101265.00
2022-10-20T16:45:01.726Z,101263.34
2022-10-20T16:47:28.957Z,101259.06
2022-10-20T16:49:56.247Z,101253.84
2022-10-20T16:52:23.500Z,101253.84
2022-10-20T16:54:50.645Z,101240.88
2022-10-20T16:57:17.820Z,101211.97
2022-10-20T16:59:49.922Z,101213.84
2022-10-20T17:02:18.872Z,101220.94
2022-10-20T17:04:49.711Z,101216.72
2022-10-20T17:07:18.164Z,101213.28
2022-10-20T17:09:45.451Z,101215.13
2022-10-20T17:12:12.612Z,101207.31
2022-10-20T17:14:40.722Z,101217.97
2022-10-20T17:17:07.965Z,101198.72
2022-10-20T17:19:35.306Z,101200.41
2022-10-20T17:22:02.541Z,101192.63
2022-10-20T17:24:29.768Z,101185.81
2022-10-20T17:26:56.904Z,101191.19
2022-10-20T17:29:26.176Z,101190.47
2022-10-20T17:31:53.591Z,101187.94
2022-10-20T17:34:20.746Z,101191.47
2022-10-20T17:36:47.905Z,101199.47
2022-10-20T17:39:16.981Z,101214.38
2022-10-20T17:41:44.161Z,101208.25
2022-10-20T17:44:11.724Z,101203.97
2022-10-20T17:46:39.059Z,101209.19
2022-10-20T17:49:06.787Z,101197.84
2022-10-20T17:51:35.055Z,101203.97
2022-10-20T17:54:02.433Z,101195.22
2022-10-20T17:56:31.946Z,101179.44
2022-10-20T17:59:00.248Z,101190.13
2022-10-20T18:01:30.540Z,101165.50
2022-10-20T18:04:00.794Z,101167.34
2022-10-20T18:06:33.794Z,101169.09
2022-10-20T18:09:06.993Z,101156.94
2022-10-20T18:11:35.189Z,101143.81
2022-10-20T18:14:03.495Z,101146.47
2022-10-20T18:16:32.738Z,101144.00
2022-10-20T18:19:00.395Z,101148.41
2022-10-20T18:21:28.962Z,101159.03
2022-10-20T18:23:57.400Z,101144.94
2022-10-20T18:26:24.642Z,101144.88
2022-10-20T18:28:52.284Z,101152.91
2022-10-20T18:31:22.760Z,101142.50
2022-10-20T18:33:54.182Z,101137.25
2022-10-20T18:36:21.321Z,101132.06
2022-10-20T18:38:48.531Z,101129.53
2022-10-20T18:41:21.033Z,101132.22
2022-10-20T18:43:57.610Z,101142.75
2022-10-20T18:46:29.859Z,101130.56
2022-10-20T18:48:58.016Z,101128.81
2022-10-20T18:51:25.299Z,101132.41
2022-10-20T18:53:55.172Z,101119.34
2022-10-20T18:56:24.350Z,101114.09
2022-10-20T18:58:53.947Z,101107.16
2022-10-20T19:01:23.345Z,101115.22
2022-10-20T19:03:53.077Z,101119.59
2022-10-20T19:06:22.092Z,101116.94
2022-10-20T19:08:54.077Z,101118.78
2022-10-20T19:11:23.298Z,101111.88
2022-10-20T19:13:50.569Z,101111.97
2022-10-20T19:16:20.639Z,101105.88
2022-10-20T19:18:50.391Z,101097.91
2022-10-20T19:21:18.015Z,101107.63
2022-10-20T19:23:48.298Z,101095.34
2022-10-20T19:26:18.251Z,101090.28
2022-10-20T19:28:58.822Z,101089.59
2022-10-20T19:31:27.658Z,101092.16
2022-10-20T19:33:58.319Z,101091.47
2022-10-20T19:36:26.750Z,101089.66
2022-10-20T19:38:54.589Z,101083.72
2022-10-20T19:41:22.625Z,101074.19
2022-10-20T19:43:50.201Z,101081.28
2022-10-20T19:46:19.705Z,101083.94
2022-10-20T19:48:47.724Z,101077.84
2022-10-20T19:51:16.895Z,101071.88
2022-10-20T19:53:44.485Z,101079.81
2022-10-20T19:56:11.762Z,101078.09
2022-10-20T19:58:42.628Z,101074.63
2022-10-20T20:01:12.884Z,101071.38
2022-10-20T20:03:40.077Z,101068.63
2022-10-20T20:06:16.200Z,101057.31
2022-10-20T20:08:48.616Z,101053.03
2022-10-20T20:11:24.015Z,101047.78
2022-10-20T20:14:02.372Z,101047.66
2022-10-20T20:16:30.005Z,101048.50
2022-10-20T20:18:57.579Z,101059.03
2022-10-20T20:21:25.043Z,101044.09
2022-10-20T20:24:01.174Z,101047.59
2022-10-20T20:26:30.506Z,101043.25
2022-10-20T20:28:58.557Z,101037.22
2022-10-20T20:31:27.675Z,101038.84
2022-10-20T20:33:56.547Z,101045.22
2022-10-20T20:36:27.003Z,101045.25
2022-10-20T20:38:57.449Z,101046.94
2022-10-20T20:41:26.990Z,101050.56
2022-10-20T20:43:54.738Z,101053.28
2022-10-20T20:46:23.869Z,101048.94
2022-10-20T20:48:51.336Z,101062.84
2022-10-20T20:51:18.823Z,101049.59
2022-10-20T20:53:46.052Z,101057.47
2022-10-20T20:56:21.944Z,101055.53
2022-10-20T20:58:55.666Z,101052.84
2022-10-20T21:01:24.307Z,101039.94
2022-10-20T21:04:00.053Z,101037.06
2022-10-20T21:06:33.919Z,101033.53
2022-10-20T21:09:11.685Z,101036.94
2022-10-20T21:11:38.945Z,101026.38
2022-10-20T21:14:06.144Z,101026.34
2022-10-20T21:16:35.386Z,101032.47
2022-10-20T21:19:05.436Z,101033.25
2022-10-20T21:21:34.555Z,101036.03
2022-10-20T21:24:02.613Z,101041.19
2022-10-20T21:26:30.273Z,101033.28
2022-10-20T21:28:58.196Z,101038.50
2022-10-20T21:31:27.137Z,101040.13
2022-10-20T21:33:56.442Z,101046.22
2022-10-20T21:36:24.317Z,101042.69
2022-10-20T21:38:52.160Z,101040.75
2022-10-20T21:41:21.836Z,101043.31
2022-10-20T21:43:51.450Z,101042.38
2022-10-20T21:46:30.443Z,101034.56
2022-10-20T21:49:07.056Z,101045.13
2022-10-20T21:51:37.117Z,101037.34
2022-10-20T21:54:07.232Z,101036.47
2022-10-20T21:56:36.772Z,101039.09
2022-10-20T21:59:04.680Z,101036.47
2022-10-20T22:01:32.261Z,101027.97
2022-10-20T22:03:59.545Z,101022.88
2022-10-20T22:06:27.447Z,101036.16
2022-10-20T22:08:57.280Z,101044.97
2022-10-20T22:11:30.042Z,101044.03
2022-10-20T22:13:57.362Z,101045.81
2022-10-20T22:16:27.209Z,101050.31
2022-10-20T22:18:59.236Z,101039.84
2022-10-20T22:21:27.098Z,101032.13
2022-10-20T22:23:55.627Z,101034.81
2022-10-20T22:26:26.089Z,101041.97
2022-10-20T22:28:53.549Z,101029.56
2022-10-20T22:31:20.789Z,101017.41
2022-10-20T22:33:48.004Z,101021.06
2022-10-20T22:36:15.155Z,101003.44
2022-10-20T22:38:42.352Z,101006.06
2022-10-20T22:41:11.644Z,101006.16
2022-10-20T22:43:38.751Z,101002.53
2022-10-20T22:46:09.118Z,101005.19
2022-10-20T22:48:36.721Z,101005.94
2022-10-20T22:51:08.330Z,101002.59
2022-10-20T22:53:36.303Z,101005.25
2022-10-20T22:56:09.015Z,100990.25
2022-10-20T22:58:36.756Z,100983.22
2022-10-20T23:01:17.735Z,100983.28
2022-10-20T23:03:45.485Z,100987.63
2022-10-20T23:06:18.542Z,100984.19
2022-10-20T23:08:47.968Z,100959.75
2022-10-20T23:11:15.671Z,100971.19
2022-10-20T23:13:43.080Z,100973.81
2022-10-20T23:16:10.941Z,100977.28
2022-10-20T23:18:38.546Z,100974.53
2022-10-20T23:21:06.327Z,100974.41
2022-10-20T23:23:36.356Z,100967.16
2022-10-20T23:26:04.773Z,100965.16
2022-10-20T23:28:37.247Z,100956.56
2022-10-20T23:31:13.374Z,100973.34
2022-10-20T23:33:42.075Z,100975.81
2022-10-20T23:36:09.993Z,100950.25
2022-10-20T23:38:37.185Z,100937.50
2022-10-20T23:41:04.973Z,100932.25
2022-10-20T23:43:32.623Z,100920.97
2022-10-20T23:46:00.116Z,100935.09
2022-10-20T23:48:27.345Z,100953.13
2022-10-20T23:50:54.513Z,100939.97
2022-10-20T23:53:21.688Z,100927.97
2022-10-20T23:55:48.868Z,100935.00
2022-10-20T23:58:16.121Z,100924.44
